Breitung, Minnesota
Current Conditions -  °F | °C
As of 6:35 PM on Monday 24 Nov 2014 (Local Time) from KCQM Reporting Station
Light Snow Light Snow  
Wind Chill:   Ceiling: 1900
Heat Index: 16°   Visibility: 10mi
Dew Point: 10°   Wind: 9mph
Humidity: 79%   Direction: 310°NW
Pressure: 29.71"   Gusts: NA
Location:  47.7992°N, 92.3042°W
Report Text: KCQM 250035Z AUTO 31008KT 281V341 10SM -SN BKN019 OVC025 M09/M12 A2971 RMK AO2
Loading
Personal Weather Stations






























Interactive Weather Map New forecast layout! Learn more

10-Day Weather Forecast

Advertisements
Track Severe Weather on mobile